createdAt,value
2023-05-19T00:04:17.295Z,5.70
2023-05-19T00:09:19.636Z,4.90
2023-05-19T00:14:22.014Z,5.85
2023-05-19T00:19:25.570Z,7.12
2023-05-19T00:24:27.899Z,5.87
2023-05-19T00:29:30.053Z,8.48
2023-05-19T00:34:32.237Z,5.68
2023-05-19T00:39:34.373Z,6.30
2023-05-19T00:44:41.441Z,5.53
2023-05-19T00:49:43.557Z,6.30
2023-05-19T00:54:46.417Z,7.53
2023-05-19T00:59:48.949Z,7.10
2023-05-19T01:04:51.803Z,6.65
2023-05-19T01:09:54.178Z,6.80
2023-05-19T01:14:58.715Z,6.57
2023-05-19T01:20:11.068Z,6.25
2023-05-19T01:25:29.781Z,6.45
2023-05-19T01:30:48.653Z,6.90
2023-05-19T01:35:51.850Z,7.70
2023-05-19T01:40:55.990Z,6.78
2023-05-19T01:45:59.002Z,8.63
2023-05-19T01:51:01.463Z,6.57
2023-05-19T01:56:04.154Z,7.87
2023-05-19T02:01:47.496Z,7.85
2023-05-19T02:07:03.614Z,7.83
2023-05-19T02:12:23.335Z,9.25
2023-05-19T02:17:29.406Z,8.52
2023-05-19T02:22:31.893Z,8.03
2023-05-19T02:27:35.105Z,10.13
2023-05-19T02:32:37.703Z,8.38
2023-05-19T02:37:39.985Z,8.07
2023-05-19T02:42:42.072Z,8.07
2023-05-19T02:47:44.257Z,9.00
2023-05-19T02:52:46.418Z,7.28
2023-05-19T02:57:48.509Z,8.83
2023-05-19T03:02:53.085Z,12.30
2023-05-19T03:07:55.255Z,9.75
2023-05-19T03:12:57.357Z,10.93
2023-05-19T03:17:59.493Z,9.20
2023-05-19T03:23:01.612Z,7.57
2023-05-19T03:28:03.932Z,7.30
2023-05-19T03:33:06.234Z,8.80
2023-05-19T03:38:08.410Z,9.25
2023-05-19T03:43:10.745Z,10.90
2023-05-19T03:48:12.968Z,10.57
2023-05-19T03:53:15.065Z,10.50
2023-05-19T03:58:17.202Z,10.43
2023-05-19T04:03:19.472Z,9.07
2023-05-19T04:08:21.703Z,9.55
2023-05-19T04:13:23.940Z,11.10
2023-05-19T04:18:28.785Z,9.27
2023-05-19T04:23:31.752Z,11.63
2023-05-19T04:28:38.562Z,10.60
2023-05-19T04:33:41.104Z,10.98
2023-05-19T04:38:43.497Z,11.77
2023-05-19T04:43:45.783Z,10.90
2023-05-19T04:48:47.870Z,11.98
2023-05-19T04:53:50.027Z,12.60
2023-05-19T04:58:53.752Z,11.85
2023-05-19T05:03:56.161Z,13.07
2023-05-19T05:08:58.589Z,16.13
2023-05-19T05:14:01.109Z,15.57
2023-05-19T05:19:03.861Z,13.73
2023-05-19T05:24:06.544Z,16.67
2023-05-19T05:29:09.856Z,13.77
2023-05-19T05:34:12.050Z,13.10
2023-05-19T05:39:14.197Z,13.57
2023-05-19T05:44:16.287Z,13.70
2023-05-19T05:49:18.731Z,13.65
2023-05-19T05:54:22.438Z,13.85
2023-05-19T05:59:25.059Z,13.03
2023-05-19T06:04:27.237Z,13.27
2023-05-19T06:09:30.386Z,13.13
2023-05-19T06:14:32.574Z,12.40
2023-05-19T06:19:34.694Z,13.80
2023-05-19T06:24:39.459Z,11.75
2023-05-19T06:29:41.867Z,13.65
2023-05-19T06:34:44.014Z,15.77
2023-05-19T06:39:47.295Z,10.50
2023-05-19T06:44:50.303Z,16.02
2023-05-19T06:49:55.573Z,10.97
2023-05-19T06:54:57.920Z,11.73
2023-05-19T07:00:00.093Z,10.93
2023-05-19T07:05:03.183Z,10.75
2023-05-19T07:10:05.944Z,15.17
2023-05-19T07:15:08.353Z,12.70
2023-05-19T07:20:10.859Z,13.93
2023-05-19T07:25:12.946Z,10.63
2023-05-19T07:30:15.104Z,9.27
2023-05-19T07:35:17.264Z,7.05
2023-05-19T07:40:19.523Z,9.27
2023-05-19T07:45:21.844Z,11.30
2023-05-19T07:50:24.102Z,9.95
2023-05-19T07:55:26.379Z,9.45
2023-05-19T08:00:28.543Z,11.33
2023-05-19T08:05:30.814Z,7.43
2023-05-19T08:10:33.226Z,7.43
2023-05-19T08:15:35.810Z,7.60
2023-05-19T08:20:37.976Z,6.18
2023-05-19T08:25:40.721Z,5.07
2023-05-19T08:30:42.907Z,5.03
2023-05-19T08:35:45.088Z,7.40
2023-05-19T08:40:48.428Z,5.93
2023-05-19T08:45:50.656Z,6.53
2023-05-19T08:51:03.310Z,4.70
2023-05-19T08:56:11.283Z,5.55
2023-05-19T09:01:16.914Z,5.50
2023-05-19T09:06:19.688Z,4.40
2023-05-19T09:11:22.752Z,5.25
2023-05-19T09:16:27.650Z,4.30
2023-05-19T09:21:32.203Z,6.23
2023-05-19T09:26:42.287Z,3.83
2023-05-19T09:31:55.989Z,5.82
2023-05-19T09:36:59.829Z,5.05
2023-05-19T09:42:04.966Z,4.30
2023-05-19T09:47:09.779Z,8.15
2023-05-19T09:52:16.292Z,5.72
2023-05-19T09:57:18.560Z,4.70
2023-05-19T10:02:21.831Z,6.75
2023-05-19T10:07:25.293Z,5.10
2023-05-19T10:12:28.088Z,6.60
2023-05-19T10:17:30.928Z,5.37
2023-05-19T10:22:33.797Z,6.62
2023-05-19T10:27:40.629Z,6.22
2023-05-19T10:32:46.744Z,6.43
2023-05-19T10:37:57.640Z,7.12
2023-05-19T10:43:02.850Z,6.50
2023-05-19T10:48:05.220Z,7.00
2023-05-19T10:53:15.085Z,4.72
2023-05-19T10:58:36.412Z,5.30
2023-05-19T11:03:49.130Z,10.10
2023-05-19T11:08:55.545Z,6.43
2023-05-19T11:14:00.425Z,4.95
2023-05-19T11:19:02.618Z,5.68
2023-05-19T11:24:08.886Z,4.03
2023-05-19T11:29:11.882Z,5.30
2023-05-19T11:34:14.574Z,5.85
2023-05-19T11:39:16.993Z,16.80
2023-05-19T11:44:19.129Z,9.73
2023-05-19T11:49:21.332Z,6.90
2023-05-19T11:54:31.611Z,5.60
2023-05-19T11:59:36.482Z,5.47
2023-05-19T12:04:38.666Z,3.83
2023-05-19T12:09:41.322Z,5.65
2023-05-19T12:14:43.864Z,5.83
2023-05-19T12:19:50.185Z,4.20
2023-05-19T12:24:52.791Z,6.30
2023-05-19T12:29:59.576Z,5.20
2023-05-19T12:35:07.080Z,5.57
2023-05-19T12:40:09.959Z,3.47
2023-05-19T12:45:12.480Z,4.27
2023-05-19T12:50:14.732Z,3.90
2023-05-19T12:55:16.884Z,4.72
2023-05-19T13:00:21.128Z,3.78
2023-05-19T13:05:24.001Z,3.70
2023-05-19T13:10:29.706Z,3.55
2023-05-19T13:15:37.997Z,3.42
2023-05-19T13:20:42.248Z,7.70
2023-05-19T13:25:44.401Z,5.00
2023-05-19T13:30:46.662Z,2.95
2023-05-19T13:35:49.250Z,3.60
2023-05-19T13:40:52.799Z,5.50
2023-05-19T13:45:54.934Z,3.53
2023-05-19T13:50:57.870Z,4.60
2023-05-19T13:56:01.228Z,4.30
2023-05-19T14:01:03.437Z,5.55
2023-05-19T14:06:05.633Z,4.22
2023-05-19T14:11:07.872Z,4.17
2023-05-19T14:16:10.299Z,4.15
2023-05-19T14:21:12.510Z,4.47
2023-05-19T14:26:14.653Z,4.30
2023-05-19T14:31:16.967Z,4.73
2023-05-19T14:36:19.162Z,6.07
2023-05-19T14:41:21.884Z,3.67
2023-05-19T14:46:24.053Z,3.33
2023-05-19T14:51:26.203Z,4.53
2023-05-19T14:56:28.328Z,3.40
2023-05-19T15:01:30.918Z,6.20
2023-05-19T15:06:33.134Z,4.75
2023-05-19T15:11:35.866Z,3.30
2023-05-19T15:16:38.048Z,3.30
2023-05-19T15:21:40.215Z,3.47
2023-05-19T15:26:42.424Z,3.35
2023-05-19T15:31:44.640Z,4.53
2023-05-19T15:36:47.500Z,5.27
2023-05-19T15:41:52.672Z,3.62
2023-05-19T15:46:54.858Z,3.28
2023-05-19T15:51:57.026Z,3.43
2023-05-19T15:56:59.194Z,4.95
2023-05-19T16:02:01.594Z,4.60
2023-05-19T16:07:03.895Z,5.73
2023-05-19T16:12:06.490Z,6.67
2023-05-19T16:17:11.568Z,3.62
2023-05-19T16:22:13.798Z,2.92
2023-05-19T16:27:15.959Z,4.30
2023-05-19T16:32:18.133Z,6.30
2023-05-19T16:37:20.431Z,6.70
2023-05-19T16:42:23.194Z,5.97
2023-05-19T16:47:27.803Z,4.35
2023-05-19T16:52:30.686Z,5.72
2023-05-19T16:57:32.872Z,5.47
2023-05-19T17:02:35.130Z,4.40
2023-05-19T17:07:37.455Z,6.18
2023-05-19T17:12:40.035Z,5.20
2023-05-19T17:17:42.215Z,4.13
2023-05-19T17:22:44.354Z,5.57
2023-05-19T17:27:46.460Z,5.43
2023-05-19T17:32:48.667Z,5.00
2023-05-19T17:37:50.939Z,4.60
2023-05-19T17:42:53.099Z,3.65
2023-05-19T17:47:55.304Z,5.47
2023-05-19T17:52:57.647Z,4.60
2023-05-19T17:58:00.182Z,4.95
2023-05-19T18:03:04.609Z,5.03
2023-05-19T18:08:09.380Z,4.93
2023-05-19T18:13:14.641Z,8.10
2023-05-19T18:18:16.825Z,6.43
2023-05-19T18:23:20.407Z,6.57
2023-05-19T18:28:23.859Z,7.68
2023-05-19T18:33:27.883Z,6.95
2023-05-19T18:38:30.742Z,7.43
2023-05-19T18:43:33.173Z,7.10
2023-05-19T18:48:35.354Z,6.28
2023-05-19T18:53:37.579Z,9.02
2023-05-19T18:58:39.727Z,7.43
2023-05-19T19:03:43.660Z,8.13
2023-05-19T19:08:45.868Z,8.45
2023-05-19T19:13:51.198Z,8.27
2023-05-19T19:18:53.705Z,7.43
2023-05-19T19:23:57.055Z,10.23
2023-05-19T19:28:59.245Z,6.63
2023-05-19T19:34:03.923Z,6.13
2023-05-19T19:39:06.193Z,8.38
2023-05-19T19:44:08.466Z,6.30
2023-05-19T19:49:10.839Z,9.07
2023-05-19T19:54:12.972Z,8.57
2023-05-19T19:59:16.109Z,10.10
2023-05-19T20:04:18.387Z,9.07
2023-05-19T20:09:20.944Z,6.47
2023-05-19T20:14:23.058Z,8.85
2023-05-19T20:19:26.557Z,10.40
2023-05-19T20:24:28.813Z,10.20
2023-05-19T20:29:30.930Z,11.50
2023-05-19T20:34:33.162Z,9.38
2023-05-19T20:39:35.420Z,9.97
2023-05-19T20:44:37.644Z,10.60
2023-05-19T20:49:39.810Z,8.77
2023-05-19T20:54:42.320Z,9.17
2023-05-19T20:59:44.491Z,7.65
2023-05-19T21:04:46.698Z,9.50
2023-05-19T21:09:50.537Z,8.77
2023-05-19T21:14:52.640Z,7.40
2023-05-19T21:19:58.305Z,9.95
2023-05-19T21:25:00.565Z,7.75
2023-05-19T21:30:02.843Z,8.43
2023-05-19T21:35:06.208Z,8.82
2023-05-19T21:40:09.784Z,9.20
2023-05-19T21:45:11.959Z,13.53
2023-05-19T21:50:17.401Z,8.80
2023-05-19T21:55:22.274Z,9.23
2023-05-19T22:00:25.694Z,7.33
2023-05-19T22:05:30.343Z,8.73
2023-05-19T22:10:32.772Z,8.02
2023-05-19T22:15:35.194Z,9.30
2023-05-19T22:20:38.273Z,9.30
2023-05-19T22:25:40.390Z,7.22
2023-05-19T22:30:42.782Z,10.95
2023-05-19T22:35:45.000Z,7.40
2023-05-19T22:40:47.212Z,7.30
2023-05-19T22:45:49.475Z,8.02
2023-05-19T22:50:51.753Z,8.93
2023-05-19T22:55:53.930Z,9.47
2023-05-19T23:00:56.217Z,9.52
2023-05-19T23:05:58.594Z,9.85
2023-05-19T23:11:02.251Z,9.80
2023-05-19T23:16:06.652Z,9.95
2023-05-19T23:21:08.785Z,9.18
2023-05-19T23:26:13.298Z,8.50
2023-05-19T23:31:15.583Z,9.63
2023-05-19T23:36:18.232Z,8.23
2023-05-19T23:41:21.087Z,7.50
2023-05-19T23:46:23.349Z,10.03
2023-05-19T23:51:25.741Z,9.77
2023-05-19T23:56:27.905Z,8.02
